createdAt,value
2023-05-12T00:00:15.190Z,8.50
2023-05-12T00:02:44.613Z,8.50
2023-05-12T00:05:11.529Z,8.40
2023-05-12T00:07:38.459Z,8.40
2023-05-12T00:10:05.714Z,8.40
2023-05-12T00:12:32.690Z,8.30
2023-05-12T00:14:59.524Z,8.30
2023-05-12T00:17:28.026Z,8.30
2023-05-12T00:19:55.144Z,8.20
2023-05-12T00:22:22.037Z,8.20
2023-05-12T00:24:48.852Z,8.20
2023-05-12T00:27:15.829Z,8.10
2023-05-12T00:29:42.714Z,8.10
2023-05-12T00:32:09.529Z,8.00
2023-05-12T00:34:36.542Z,7.90
2023-05-12T00:37:03.790Z,7.80
2023-05-12T00:39:30.669Z,7.60
2023-05-12T00:41:59.051Z,7.50
2023-05-12T00:44:26.097Z,7.40
2023-05-12T00:46:53.191Z,7.30
2023-05-12T00:49:21.287Z,7.20
2023-05-12T00:51:48.212Z,7.20
2023-05-12T00:54:16.060Z,7.20
2023-05-12T00:56:42.974Z,7.10
2023-05-12T00:59:10.294Z,7.10
2023-05-12T01:01:40.645Z,7.00
2023-05-12T01:04:08.422Z,7.00
2023-05-12T01:06:48.033Z,6.90
2023-05-12T01:09:16.465Z,6.80
2023-05-12T01:11:44.735Z,6.70
2023-05-12T01:14:11.975Z,6.70
2023-05-12T01:16:44.986Z,6.70
2023-05-12T01:19:41.166Z,6.70
2023-05-12T01:22:12.845Z,6.60
2023-05-12T01:24:48.578Z,6.60
2023-05-12T01:27:17.456Z,6.50
2023-05-12T01:29:46.977Z,6.50
2023-05-12T01:32:16.264Z,6.40
2023-05-12T01:34:43.308Z,6.30
2023-05-12T01:37:12.657Z,6.40
2023-05-12T01:39:40.601Z,6.40
2023-05-12T01:42:10.061Z,6.40
2023-05-12T01:44:37.053Z,6.40
2023-05-12T01:47:04.265Z,6.40
2023-05-12T01:49:33.309Z,6.40
2023-05-12T01:52:00.053Z,6.30
2023-05-12T01:54:30.235Z,6.30
2023-05-12T01:56:57.220Z,6.20
2023-05-12T01:59:25.246Z,6.30
2023-05-12T02:01:53.522Z,6.40
2023-05-12T02:04:27.688Z,6.50
2023-05-12T02:06:55.681Z,6.60
2023-05-12T02:09:22.975Z,6.60
2023-05-12T02:11:50.862Z,6.60
2023-05-12T02:14:17.694Z,6.70
2023-05-12T02:16:44.961Z,6.60
2023-05-12T02:19:12.091Z,6.60
2023-05-12T02:21:39.469Z,6.50
2023-05-12T02:24:06.608Z,6.50
2023-05-12T02:26:34.953Z,6.40
2023-05-12T02:29:01.772Z,6.30
2023-05-12T02:31:29.018Z,6.30
2023-05-12T02:33:56.441Z,6.20
2023-05-12T02:36:23.264Z,6.20
2023-05-12T02:38:50.201Z,6.30
2023-05-12T02:41:17.214Z,6.40
2023-05-12T02:43:44.286Z,6.50
2023-05-12T02:46:11.304Z,6.70
2023-05-12T02:48:38.898Z,6.70
2023-05-12T02:51:05.825Z,6.80
2023-05-12T02:53:32.732Z,6.90
2023-05-12T02:55:59.694Z,6.90
2023-05-12T02:58:26.624Z,6.90
2023-05-12T03:01:03.133Z,7.00
2023-05-12T03:03:34.354Z,7.00
2023-05-12T03:06:01.512Z,7.10
2023-05-12T03:08:28.357Z,7.10
2023-05-12T03:10:55.214Z,7.10
2023-05-12T03:13:22.373Z,7.20
2023-05-12T03:15:49.306Z,7.20
2023-05-12T03:18:16.295Z,7.20
2023-05-12T03:20:43.201Z,7.20
2023-05-12T03:23:10.518Z,7.30
2023-05-12T03:25:37.358Z,7.30
2023-05-12T03:28:04.477Z,7.40
2023-05-12T03:30:33.015Z,7.50
2023-05-12T03:33:00.149Z,7.40
2023-05-12T03:35:27.341Z,7.40
2023-05-12T03:37:54.242Z,7.40
2023-05-12T03:40:21.485Z,7.30
2023-05-12T03:42:48.486Z,7.30
2023-05-12T03:45:18.437Z,7.40
2023-05-12T03:47:45.705Z,7.40
2023-05-12T03:50:13.312Z,7.40
2023-05-12T03:52:41.453Z,7.40
2023-05-12T03:55:09.219Z,7.50
2023-05-12T03:57:37.749Z,7.50
2023-05-12T04:00:05.646Z,7.50
2023-05-12T04:02:40.094Z,7.50
2023-05-12T04:05:09.971Z,7.60
2023-05-12T04:07:36.994Z,7.60
2023-05-12T04:10:04.899Z,7.60
2023-05-12T04:12:32.251Z,7.60
2023-05-12T04:14:59.521Z,7.60
2023-05-12T04:17:26.354Z,7.60
2023-05-12T04:19:53.674Z,7.60
2023-05-12T04:22:21.245Z,7.60
2023-05-12T04:24:49.378Z,7.60
2023-05-12T04:27:16.229Z,7.60
2023-05-12T04:29:43.698Z,7.60
2023-05-12T04:32:11.414Z,7.60
2023-05-12T04:34:38.604Z,7.60
2023-05-12T04:37:05.806Z,7.70
2023-05-12T04:39:32.713Z,7.70
2023-05-12T04:42:02.176Z,7.80
2023-05-12T04:44:31.393Z,7.70
2023-05-12T04:46:58.358Z,7.70
2023-05-12T04:49:25.520Z,7.70
2023-05-12T04:51:52.417Z,7.80
2023-05-12T04:54:19.367Z,7.80
2023-05-12T04:56:49.403Z,7.90
2023-05-12T04:59:16.417Z,7.90
2023-05-12T05:01:44.662Z,7.90
2023-05-12T05:04:11.819Z,8.00
2023-05-12T05:06:39.294Z,7.90
2023-05-12T05:09:06.429Z,8.00
2023-05-12T05:11:33.358Z,8.00
2023-05-12T05:14:00.203Z,8.10
2023-05-12T05:16:28.260Z,8.10
2023-05-12T05:18:58.176Z,8.20
2023-05-12T05:21:26.261Z,8.30
2023-05-12T05:23:53.254Z,8.40
2023-05-12T05:26:22.187Z,8.60
2023-05-12T05:28:50.516Z,8.80
2023-05-12T05:31:17.676Z,9.00
2023-05-12T05:33:44.941Z,9.00
2023-05-12T05:36:11.968Z,9.20
2023-05-12T05:38:39.132Z,9.30
2023-05-12T05:41:06.677Z,9.50
2023-05-12T05:43:33.874Z,9.50
2023-05-12T05:46:01.394Z,9.60
2023-05-12T05:48:28.389Z,9.60
2023-05-12T05:50:55.511Z,9.70
2023-05-12T05:53:24.044Z,9.90
2023-05-12T05:55:51.808Z,10.00
2023-05-12T05:58:18.676Z,10.10
2023-05-12T06:00:46.575Z,10.20
2023-05-12T06:03:13.653Z,10.20
2023-05-12T06:05:43.076Z,10.00
2023-05-12T06:08:13.305Z,9.90
2023-05-12T06:10:41.036Z,9.70
2023-05-12T06:13:07.893Z,10.00
2023-05-12T06:15:34.773Z,10.40
2023-05-12T06:18:01.707Z,10.40
2023-05-12T06:20:28.721Z,10.50
2023-05-12T06:22:55.748Z,10.70
2023-05-12T06:25:22.711Z,11.00
2023-05-12T06:27:52.722Z,11.30
2023-05-12T06:30:19.554Z,11.50
2023-05-12T06:32:46.703Z,11.60
2023-05-12T06:35:13.509Z,11.60
2023-05-12T06:37:40.319Z,11.50
2023-05-12T06:40:07.969Z,11.80
2023-05-12T06:42:34.725Z,11.60
2023-05-12T06:45:09.458Z,11.70
2023-05-12T06:47:36.260Z,12.00
2023-05-12T06:50:03.341Z,11.90
2023-05-12T06:52:30.102Z,11.80
2023-05-12T06:54:56.935Z,12.10
2023-05-12T06:57:23.955Z,12.10
2023-05-12T06:59:50.776Z,12.20
2023-05-12T07:02:17.760Z,12.20
2023-05-12T07:04:44.555Z,12.50
2023-05-12T07:07:11.390Z,12.50
2023-05-12T07:09:40.539Z,12.60
2023-05-12T07:12:07.690Z,12.50
2023-05-12T07:14:34.476Z,12.40
2023-05-12T07:17:01.241Z,12.40
2023-05-12T07:19:28.050Z,12.50
2023-05-12T07:21:54.858Z,12.70
2023-05-12T07:24:21.618Z,12.60
2023-05-12T07:26:48.389Z,13.00
2023-05-12T07:29:15.106Z,12.80
2023-05-12T07:31:42.240Z,13.10
2023-05-12T07:34:09.062Z,13.50
2023-05-12T07:36:35.838Z,13.80
2023-05-12T07:39:02.634Z,14.10
2023-05-12T07:41:29.571Z,14.30
2023-05-12T07:43:56.343Z,13.80
2023-05-12T07:46:23.197Z,13.70
2023-05-12T07:48:50.699Z,13.20
2023-05-12T07:51:17.612Z,13.50
2023-05-12T07:53:44.935Z,14.00
2023-05-12T07:56:11.725Z,14.20
2023-05-12T07:58:38.496Z,14.70
2023-05-12T08:01:06.884Z,15.00
2023-05-12T08:03:34.934Z,15.10
2023-05-12T08:06:03.492Z,15.30
2023-05-12T08:08:30.337Z,16.00
2023-05-12T08:10:57.139Z,16.10
2023-05-12T08:13:23.949Z,15.90
2023-05-12T08:15:51.141Z,16.00
2023-05-12T08:18:18.106Z,16.30
2023-05-12T08:20:45.446Z,16.40
2023-05-12T08:23:12.412Z,16.70
2023-05-12T08:25:40.877Z,17.00
2023-05-12T08:28:07.717Z,17.00
2023-05-12T08:30:34.524Z,16.70
2023-05-12T08:33:03.528Z,16.50
2023-05-12T08:35:30.682Z,16.40
2023-05-12T08:37:58.149Z,16.20
2023-05-12T08:40:26.642Z,16.40
2023-05-12T08:43:23.331Z,16.90
2023-05-12T08:45:50.642Z,16.90
2023-05-12T08:48:19.772Z,17.20
2023-05-12T08:50:49.943Z,17.60
2023-05-12T08:53:19.174Z,18.10
2023-05-12T08:56:01.159Z,18.40
2023-05-12T08:58:41.582Z,18.60
2023-05-12T09:01:11.081Z,18.90
2023-05-12T09:03:37.970Z,18.80
2023-05-12T09:06:06.697Z,18.50
2023-05-12T09:08:35.101Z,18.20
2023-05-12T09:11:02.546Z,17.90
2023-05-12T09:13:35.160Z,18.40
2023-05-12T09:16:02.782Z,18.60
2023-05-12T09:18:53.385Z,18.90
2023-05-12T09:21:20.824Z,19.40
2023-05-12T09:23:54.209Z,19.60
2023-05-12T09:26:22.758Z,19.70
2023-05-12T09:28:52.051Z,20.00
2023-05-12T09:31:22.948Z,19.90
2023-05-12T09:33:51.469Z,20.10
2023-05-12T09:36:23.714Z,19.80
2023-05-12T09:39:07.157Z,19.40
2023-05-12T09:41:37.717Z,18.50
2023-05-12T09:44:05.638Z,17.90
2023-05-12T09:46:32.936Z,18.90
2023-05-12T09:48:59.968Z,19.10
2023-05-12T09:51:27.551Z,19.30
2023-05-12T09:53:54.321Z,18.50
2023-05-12T09:56:21.383Z,18.10
2023-05-12T09:58:50.095Z,18.10
2023-05-12T10:01:23.309Z,17.90
2023-05-12T10:03:55.799Z,17.90
2023-05-12T10:06:36.533Z,17.60
2023-05-12T10:09:20.515Z,17.70
2023-05-12T10:11:51.960Z,17.30
2023-05-12T10:14:22.550Z,16.90
2023-05-12T10:16:50.035Z,17.00
2023-05-12T10:19:18.772Z,17.30
2023-05-12T10:21:47.199Z,17.50
2023-05-12T10:24:17.585Z,17.50
2023-05-12T10:26:44.852Z,17.60
2023-05-12T10:29:13.082Z,17.90
2023-05-12T10:31:40.413Z,18.20
2023-05-12T10:34:07.501Z,18.40
2023-05-12T10:36:49.669Z,19.80
2023-05-12T10:39:16.890Z,21.30
2023-05-12T10:41:43.849Z,20.80
2023-05-12T10:44:10.997Z,20.30
2023-05-12T10:46:38.854Z,19.70
2023-05-12T10:49:10.623Z,20.00
2023-05-12T10:51:37.801Z,19.30
2023-05-12T10:54:06.783Z,18.50
2023-05-12T10:56:40.332Z,17.60
2023-05-12T10:59:09.530Z,17.50
2023-05-12T11:01:37.640Z,17.30
2023-05-12T11:04:16.784Z,16.70
2023-05-12T11:06:45.250Z,16.60
2023-05-12T11:09:13.607Z,16.60
2023-05-12T11:11:40.832Z,16.50
2023-05-12T11:14:09.531Z,16.70
2023-05-12T11:16:43.296Z,16.80
2023-05-12T11:19:10.634Z,17.20
2023-05-12T11:21:38.529Z,17.20
2023-05-12T11:24:05.521Z,17.80
2023-05-12T11:26:33.819Z,17.90
2023-05-12T11:29:03.501Z,18.30
2023-05-12T11:31:30.609Z,18.50
2023-05-12T11:34:12.710Z,18.40
2023-05-12T11:36:44.411Z,18.20
2023-05-12T11:39:18.584Z,17.90
2023-05-12T11:41:45.999Z,17.60
2023-05-12T11:44:18.058Z,17.50
2023-05-12T11:47:11.792Z,17.10
2023-05-12T11:49:50.827Z,16.90
2023-05-12T11:52:19.743Z,17.20
2023-05-12T11:54:53.391Z,17.10
2023-05-12T11:57:36.055Z,17.10
2023-05-12T12:00:07.935Z,16.80
2023-05-12T12:02:37.493Z,16.80
2023-05-12T12:05:07.774Z,16.60
2023-05-12T12:07:36.813Z,16.20
2023-05-12T12:10:17.800Z,15.80
2023-05-12T12:12:46.007Z,15.40
2023-05-12T12:15:13.181Z,15.10
2023-05-12T12:17:40.598Z,14.70
2023-05-12T12:20:09.249Z,14.50
2023-05-12T12:22:36.667Z,14.10
2023-05-12T12:25:04.080Z,13.30
2023-05-12T12:27:31.105Z,13.30
2023-05-12T12:29:57.996Z,13.20
2023-05-12T12:32:25.019Z,13.00
2023-05-12T12:34:52.744Z,12.90
2023-05-12T12:37:19.715Z,13.20
2023-05-12T12:39:48.024Z,13.40
2023-05-12T12:42:15.647Z,13.40
2023-05-12T12:44:42.937Z,13.40
2023-05-12T12:47:09.997Z,13.80
2023-05-12T12:49:36.971Z,14.30
2023-05-12T12:52:04.159Z,14.60
2023-05-12T12:54:33.065Z,15.00
2023-05-12T12:56:59.816Z,15.30
2023-05-12T12:59:27.145Z,15.60
2023-05-12T13:01:54.066Z,15.70
2023-05-12T13:04:23.051Z,16.00
2023-05-12T13:06:50.009Z,16.20
2023-05-12T13:09:19.791Z,16.20
2023-05-12T13:11:50.435Z,16.40
2023-05-12T13:14:17.250Z,16.70
2023-05-12T13:16:47.231Z,17.00
2023-05-12T13:19:14.327Z,17.00
2023-05-12T13:21:42.082Z,16.60
2023-05-12T13:24:08.948Z,16.80
2023-05-12T13:26:35.886Z,16.70
2023-05-12T13:29:02.778Z,16.30
2023-05-12T13:31:29.971Z,15.70
2023-05-12T13:33:56.860Z,15.10
2023-05-12T13:36:23.750Z,14.90
2023-05-12T13:38:50.887Z,14.50
2023-05-12T13:41:17.600Z,14.20
2023-05-12T13:43:44.982Z,13.60
2023-05-12T13:46:11.765Z,12.90
2023-05-12T13:48:38.576Z,12.40
2023-05-12T13:51:05.648Z,12.20
2023-05-12T13:53:32.458Z,12.20
2023-05-12T13:56:16.019Z,12.20
2023-05-12T13:58:43.232Z,12.10
2023-05-12T14:01:10.669Z,12.10
2023-05-12T14:03:37.787Z,12.20
2023-05-12T14:06:05.425Z,12.20
2023-05-12T14:08:32.205Z,12.30
2023-05-12T14:10:59.605Z,12.50
2023-05-12T14:13:26.355Z,12.50
2023-05-12T14:15:53.980Z,12.60
2023-05-12T14:18:21.475Z,12.90
2023-05-12T14:20:48.974Z,13.10
2023-05-12T14:23:16.512Z,13.40
2023-05-12T14:25:43.371Z,13.50
2023-05-12T14:28:10.568Z,13.70
2023-05-12T14:30:38.775Z,13.90
2023-05-12T14:33:05.726Z,14.30
2023-05-12T14:35:32.625Z,15.00
2023-05-12T14:37:59.457Z,15.90
2023-05-12T14:40:27.320Z,16.70
2023-05-12T14:42:55.451Z,17.20
2023-05-12T14:45:23.031Z,17.60
2023-05-12T14:47:50.169Z,17.00
2023-05-12T14:50:18.314Z,16.40
2023-05-12T14:52:45.835Z,15.60
2023-05-12T14:55:13.749Z,15.00
2023-05-12T14:57:42.010Z,13.80
2023-05-12T15:00:13.525Z,12.70
2023-05-12T15:02:41.680Z,12.30
2023-05-12T15:05:10.374Z,12.10
2023-05-12T15:07:37.654Z,12.20
2023-05-12T15:10:05.716Z,12.30
2023-05-12T15:12:33.388Z,12.40
2023-05-12T15:15:02.348Z,12.50
2023-05-12T15:17:29.924Z,12.70
2023-05-12T15:19:56.920Z,12.90
2023-05-12T15:22:23.780Z,13.30
2023-05-12T15:24:50.916Z,14.10
2023-05-12T15:27:17.811Z,15.10
2023-05-12T15:29:44.604Z,15.70
2023-05-12T15:32:11.392Z,15.90
2023-05-12T15:34:39.168Z,15.30
2023-05-12T15:37:06.592Z,14.80
2023-05-12T15:39:33.415Z,14.30
2023-05-12T15:42:01.086Z,13.90
2023-05-12T15:44:28.818Z,13.70
2023-05-12T15:46:55.914Z,13.60
2023-05-12T15:49:22.844Z,13.60
2023-05-12T15:51:49.701Z,13.60
2023-05-12T15:54:16.913Z,13.60
2023-05-12T15:56:43.786Z,13.60
2023-05-12T15:59:12.092Z,13.60
2023-05-12T16:01:39.210Z,13.60
2023-05-12T16:04:07.075Z,13.60
2023-05-12T16:06:34.176Z,13.70
2023-05-12T16:09:01.127Z,13.80
2023-05-12T16:11:28.382Z,13.80
2023-05-12T16:13:56.959Z,13.70
2023-05-12T16:16:24.010Z,13.40
2023-05-12T16:18:51.094Z,12.90
2023-05-12T16:21:17.945Z,12.70
2023-05-12T16:23:44.672Z,12.40
2023-05-12T16:26:12.175Z,12.20
2023-05-12T16:28:39.073Z,12.00
2023-05-12T16:31:05.928Z,11.90
2023-05-12T16:33:32.800Z,11.90
2023-05-12T16:35:59.557Z,11.90
2023-05-12T16:38:26.738Z,12.00
2023-05-12T16:40:53.592Z,12.00
2023-05-12T16:43:20.440Z,12.10
2023-05-12T16:45:47.528Z,12.20
2023-05-12T16:48:14.429Z,12.20
2023-05-12T16:50:41.239Z,12.30
2023-05-12T16:53:08.107Z,12.40
2023-05-12T16:55:34.963Z,12.40
2023-05-12T16:58:01.850Z,12.60
2023-05-12T17:00:28.764Z,12.60
2023-05-12T17:02:55.786Z,12.60
2023-05-12T17:05:22.951Z,12.60
2023-05-12T17:07:49.913Z,12.70
2023-05-12T17:10:16.682Z,12.70
2023-05-12T17:12:43.578Z,12.70
2023-05-12T17:15:11.436Z,12.70
2023-05-12T17:17:38.443Z,12.80
2023-05-12T17:20:06.141Z,12.90
2023-05-12T17:22:34.959Z,12.80
2023-05-12T17:25:01.766Z,12.80
2023-05-12T17:27:31.233Z,12.70
2023-05-12T17:29:59.750Z,12.60
2023-05-12T17:32:27.142Z,12.50
2023-05-12T17:34:54.069Z,12.50
2023-05-12T17:37:20.893Z,12.50
2023-05-12T17:39:47.738Z,12.40
2023-05-12T17:42:14.985Z,12.30
2023-05-12T17:44:41.971Z,12.30
2023-05-12T17:47:14.047Z,12.20
2023-05-12T17:49:41.436Z,12.20
2023-05-12T17:52:08.489Z,12.20
2023-05-12T17:54:35.415Z,12.10
2023-05-12T17:57:02.378Z,12.10
2023-05-12T17:59:29.199Z,12.10
2023-05-12T18:01:56.092Z,12.00
2023-05-12T18:04:24.124Z,11.90
2023-05-12T18:06:54.988Z,12.00
2023-05-12T18:09:23.484Z,11.90
2023-05-12T18:11:50.273Z,11.90
2023-05-12T18:14:17.932Z,11.80
2023-05-12T18:16:45.092Z,11.90
2023-05-12T18:19:11.868Z,11.80
2023-05-12T18:21:38.731Z,11.80
2023-05-12T18:24:05.710Z,11.70
2023-05-12T18:26:32.655Z,11.70
2023-05-12T18:28:59.544Z,11.60
2023-05-12T18:31:26.918Z,11.50
2023-05-12T18:33:53.868Z,11.50
2023-05-12T18:36:20.825Z,11.40
2023-05-12T18:38:48.067Z,11.30
2023-05-12T18:41:15.292Z,11.30
2023-05-12T18:43:44.216Z,11.20
2023-05-12T18:46:11.715Z,11.20
2023-05-12T18:48:39.138Z,11.20
2023-05-12T18:51:06.518Z,11.20
2023-05-12T18:53:33.358Z,11.20
2023-05-12T18:56:00.186Z,11.20
2023-05-12T18:58:27.093Z,11.20
2023-05-12T19:00:54.329Z,11.20
2023-05-12T19:03:21.402Z,11.20
2023-05-12T19:05:49.111Z,11.10
2023-05-12T19:08:16.727Z,11.10
2023-05-12T19:10:43.860Z,11.00
2023-05-12T19:13:10.735Z,11.00
2023-05-12T19:15:37.731Z,10.90
2023-05-12T19:18:04.682Z,10.90
2023-05-12T19:20:31.884Z,10.90
2023-05-12T19:23:00.151Z,10.80
2023-05-12T19:25:27.465Z,10.80
2023-05-12T19:27:54.614Z,10.80
2023-05-12T19:30:21.452Z,10.80
2023-05-12T19:32:50.075Z,10.80
2023-05-12T19:35:17.500Z,10.80
2023-05-12T19:37:44.865Z,10.80
2023-05-12T19:40:11.932Z,10.90
2023-05-12T19:42:39.060Z,10.90
2023-05-12T19:45:06.570Z,10.90
2023-05-12T19:47:33.746Z,10.80
2023-05-12T19:50:01.213Z,10.90
2023-05-12T19:52:30.617Z,10.80
2023-05-12T19:54:57.988Z,10.80
2023-05-12T19:57:24.835Z,10.80
2023-05-12T19:59:51.799Z,10.80
2023-05-12T20:02:18.680Z,10.80
2023-05-12T20:04:45.768Z,10.80
2023-05-12T20:07:13.807Z,10.70
2023-05-12T20:09:40.783Z,10.60
2023-05-12T20:12:08.191Z,10.60
2023-05-12T20:14:38.534Z,10.50
2023-05-12T20:17:07.905Z,10.50
2023-05-12T20:19:35.560Z,10.50
2023-05-12T20:22:02.460Z,10.40
2023-05-12T20:24:29.756Z,10.30
2023-05-12T20:26:56.829Z,10.20
2023-05-12T20:29:26.012Z,10.10
2023-05-12T20:31:52.988Z,10.00
2023-05-12T20:34:20.046Z,9.90
2023-05-12T20:36:47.261Z,9.90
2023-05-12T20:39:15.182Z,9.80
2023-05-12T20:41:43.448Z,9.70
2023-05-12T20:44:10.890Z,9.60
2023-05-12T20:46:38.820Z,9.50
2023-05-12T20:49:06.277Z,9.50
2023-05-12T20:51:33.527Z,9.40
2023-05-12T20:54:00.463Z,9.30
2023-05-12T20:56:27.422Z,9.30
2023-05-12T20:58:54.612Z,9.20
2023-05-12T21:01:21.495Z,9.30
2023-05-12T21:03:48.459Z,9.20
2023-05-12T21:06:15.529Z,9.10
2023-05-12T21:08:42.430Z,9.20
2023-05-12T21:11:17.497Z,9.30
2023-05-12T21:13:46.998Z,9.30
2023-05-12T21:16:14.671Z,9.30
2023-05-12T21:18:41.829Z,9.40
2023-05-12T21:21:08.794Z,9.40
2023-05-12T21:23:38.849Z,9.50
2023-05-12T21:26:05.867Z,9.60
2023-05-12T21:28:32.783Z,9.70
2023-05-12T21:30:59.666Z,9.70
2023-05-12T21:33:26.575Z,9.70
2023-05-12T21:35:53.647Z,9.70
2023-05-12T21:38:20.930Z,9.80
2023-05-12T21:40:56.286Z,9.70
2023-05-12T21:43:23.325Z,9.70
2023-05-12T21:45:50.260Z,9.70
2023-05-12T21:48:18.162Z,9.80
2023-05-12T21:50:44.966Z,9.90
2023-05-12T21:53:12.097Z,9.90
2023-05-12T21:55:40.756Z,9.90
2023-05-12T21:58:07.595Z,9.90
2023-05-12T22:00:34.488Z,9.90
2023-05-12T22:03:01.469Z,9.90
2023-05-12T22:05:29.613Z,9.90
2023-05-12T22:07:57.075Z,9.90
2023-05-12T22:10:23.869Z,9.90
2023-05-12T22:12:50.746Z,10.00
2023-05-12T22:15:18.510Z,10.00
2023-05-12T22:17:49.409Z,10.00
2023-05-12T22:20:18.620Z,10.00
2023-05-12T22:22:46.125Z,10.00
2023-05-12T22:25:12.838Z,10.00
2023-05-12T22:27:39.791Z,10.00
2023-05-12T22:30:07.657Z,10.00
2023-05-12T22:32:34.616Z,10.00
2023-05-12T22:35:01.527Z,10.00
2023-05-12T22:37:28.916Z,9.90
2023-05-12T22:39:55.703Z,9.80
2023-05-12T22:42:22.551Z,9.90
2023-05-12T22:44:50.426Z,9.80
2023-05-12T22:47:17.344Z,9.80
2023-05-12T22:49:44.379Z,9.90
2023-05-12T22:52:11.417Z,9.80
2023-05-12T22:54:38.380Z,9.70
2023-05-12T22:57:05.318Z,9.70
2023-05-12T22:59:32.485Z,9.60
2023-05-12T23:01:59.359Z,9.70
2023-05-12T23:04:26.555Z,9.80
2023-05-12T23:06:53.561Z,9.80
2023-05-12T23:09:20.651Z,9.80
2023-05-12T23:11:47.442Z,9.80
2023-05-12T23:14:14.665Z,9.80
2023-05-12T23:16:41.515Z,9.80
2023-05-12T23:19:08.572Z,9.80
2023-05-12T23:21:35.637Z,9.80
2023-05-12T23:24:03.062Z,9.80
2023-05-12T23:26:29.837Z,9.80
2023-05-12T23:28:56.639Z,9.90
2023-05-12T23:31:23.526Z,9.80
2023-05-12T23:33:50.425Z,9.80
2023-05-12T23:36:17.389Z,9.80
2023-05-12T23:38:44.450Z,9.80
2023-05-12T23:41:11.273Z,9.70
2023-05-12T23:43:38.977Z,9.80
2023-05-12T23:46:06.011Z,9.80
2023-05-12T23:48:33.230Z,9.80
2023-05-12T23:51:00.120Z,9.80
2023-05-12T23:53:26.908Z,9.80
2023-05-12T23:55:53.760Z,9.70
2023-05-12T23:58:20.526Z,9.70
